sensor_id;sensor_type;location;lat;lon;timestamp;pressure;altitude;pressure_sealevel;temperature;humidity
6433;BME280;3249;42.690;23.260;2023-07-20T00:01:12;94023.06;;;21.25;100.00
6433;BME280;3249;42.690;23.260;2023-07-20T00:03:44;94028.31;;;21.38;100.00
6433;BME280;3249;42.690;23.260;2023-07-20T00:06:21;94009.91;;;21.43;100.00
6433;BME280;3249;42.690;23.260;2023-07-20T00:08:50;94003.81;;;21.48;100.00
6433;BME280;3249;42.690;23.260;2023-07-20T00:11:20;93991.38;;;21.08;100.00
6433;BME280;3249;42.690;23.260;2023-07-20T00:13:49;94028.84;;;21.22;100.00
6433;BME280;3249;42.690;23.260;2023-07-20T00:16:18;94031.97;;;21.24;100.00
6433;BME280;3249;42.690;23.260;2023-07-20T00:18:50;94041.03;;;21.45;100.00
6433;BME280;3249;42.690;23.260;2023-07-20T00:21:19;94039.75;;;21.29;100.00
6433;BME280;3249;42.690;23.260;2023-07-20T00:23:48;94036.88;;;21.44;100.00
6433;BME280;3249;42.690;23.260;2023-07-20T00:26:17;94032.00;;;21.51;100.00
6433;BME280;3249;42.690;23.260;2023-07-20T00:28:48;94029.69;;;21.63;100.00
6433;BME280;3249;42.690;23.260;2023-07-20T00:31:19;94031.66;;;21.25;100.00
6433;BME280;3249;42.690;23.260;2023-07-20T00:33:51;94037.69;;;21.26;100.00
6433;BME280;3249;42.690;23.260;2023-07-20T00:36:19;94044.34;;;21.05;100.00
6433;BME280;3249;42.690;23.260;2023-07-20T00:38:49;94051.59;;;21.08;100.00
6433;BME280;3249;42.690;23.260;2023-07-20T00:41:18;94051.09;;;21.38;100.00
6433;BME280;3249;42.690;23.260;2023-07-20T00:43:47;94049.00;;;21.53;100.00
6433;BME280;3249;42.690;23.260;2023-07-20T00:46:16;94034.47;;;21.61;100.00
6433;BME280;3249;42.690;23.260;2023-07-20T00:48:45;94036.00;;;21.62;100.00
6433;BME280;3249;42.690;23.260;2023-07-20T00:51:17;94028.13;;;21.48;100.00
6433;BME280;3249;42.690;23.260;2023-07-20T00:53:47;94026.19;;;21.54;100.00
6433;BME280;3249;42.690;23.260;2023-07-20T00:56:16;94019.81;;;21.46;100.00
6433;BME280;3249;42.690;23.260;2023-07-20T00:58:45;94029.38;;;21.37;100.00
6433;BME280;3249;42.690;23.260;2023-07-20T01:01:14;94017.53;;;20.94;100.00
6433;BME280;3249;42.690;23.260;2023-07-20T01:03:43;94019.94;;;21.23;100.00
6433;BME280;3249;42.690;23.260;2023-07-20T01:06:24;94024.69;;;21.21;100.00
6433;BME280;3249;42.690;23.260;2023-07-20T01:09:04;94012.41;;;21.03;100.00
6433;BME280;3249;42.690;23.260;2023-07-20T01:11:44;94022.34;;;21.19;100.00
6433;BME280;3249;42.690;23.260;2023-07-20T01:14:16;94029.00;;;21.30;100.00
6433;BME280;3249;42.690;23.260;2023-07-20T01:16:45;94014.47;;;21.06;100.00
6433;BME280;3249;42.690;23.260;2023-07-20T01:19:15;94017.16;;;20.64;100.00
6433;BME280;3249;42.690;23.260;2023-07-20T01:21:52;94015.28;;;20.51;100.00
6433;BME280;3249;42.690;23.260;2023-07-20T01:24:57;94009.41;;;20.59;100.00
6433;BME280;3249;42.690;23.260;2023-07-20T01:27:55;94016.63;;;20.30;100.00
6433;BME280;3249;42.690;23.260;2023-07-20T01:30:51;94025.47;;;20.10;100.00
6433;BME280;3249;42.690;23.260;2023-07-20T01:33:25;94027.66;;;20.03;100.00
6433;BME280;3249;42.690;23.260;2023-07-20T01:35:57;94021.13;;;20.24;100.00
6433;BME280;3249;42.690;23.260;2023-07-20T01:38:28;94022.97;;;20.42;100.00
6433;BME280;3249;42.690;23.260;2023-07-20T01:40:58;94020.06;;;20.44;100.00
6433;BME280;3249;42.690;23.260;2023-07-20T01:43:27;94022.03;;;20.33;100.00
6433;BME280;3249;42.690;23.260;2023-07-20T01:45:56;94012.19;;;20.49;100.00
6433;BME280;3249;42.690;23.260;2023-07-20T01:48:33;94015.19;;;20.56;100.00
6433;BME280;3249;42.690;23.260;2023-07-20T01:51:02;94007.28;;;20.61;100.00
6433;BME280;3249;42.690;23.260;2023-07-20T01:53:31;94009.47;;;20.17;100.00
6433;BME280;3249;42.690;23.260;2023-07-20T01:56:00;94015.28;;;20.09;100.00
6433;BME280;3249;42.690;23.260;2023-07-20T01:58:29;94010.69;;;20.01;100.00
6433;BME280;3249;42.690;23.260;2023-07-20T02:00:58;94014.84;;;20.02;100.00
6433;BME280;3249;42.690;23.260;2023-07-20T02:03:28;94016.41;;;20.03;100.00
6433;BME280;3249;42.690;23.260;2023-07-20T02:05:59;93999.91;;;20.07;100.00
6433;BME280;3249;42.690;23.260;2023-07-20T02:08:28;94004.78;;;19.90;100.00
6433;BME280;3249;42.690;23.260;2023-07-20T02:10:58;94006.69;;;19.85;100.00
6433;BME280;3249;42.690;23.260;2023-07-20T02:13:27;94002.28;;;20.04;100.00
6433;BME280;3249;42.690;23.260;2023-07-20T02:15:55;93998.06;;;19.37;100.00
6433;BME280;3249;42.690;23.260;2023-07-20T02:18:25;94002.97;;;19.44;100.00
6433;BME280;3249;42.690;23.260;2023-07-20T02:20:54;94001.94;;;19.11;100.00
6433;BME280;3249;42.690;23.260;2023-07-20T02:23:25;93998.78;;;19.14;100.00
6433;BME280;3249;42.690;23.260;2023-07-20T02:25:54;94007.31;;;19.25;100.00
6433;BME280;3249;42.690;23.260;2023-07-20T02:28:23;94001.28;;;19.29;100.00
6433;BME280;3249;42.690;23.260;2023-07-20T02:30:52;94001.28;;;18.96;100.00
6433;BME280;3249;42.690;23.260;2023-07-20T02:33:21;93996.53;;;19.03;100.00
6433;BME280;3249;42.690;23.260;2023-07-20T02:35:50;93989.13;;;19.15;100.00
6433;BME280;3249;42.690;23.260;2023-07-20T02:38:30;93983.97;;;19.38;100.00
6433;BME280;3249;42.690;23.260;2023-07-20T02:40:59;93990.19;;;19.42;100.00
6433;BME280;3249;42.690;23.260;2023-07-20T02:43:29;93980.19;;;19.49;100.00
6433;BME280;3249;42.690;23.260;2023-07-20T02:45:58;93978.97;;;19.42;100.00
6433;BME280;3249;42.690;23.260;2023-07-20T02:48:27;93971.81;;;18.95;100.00
6433;BME280;3249;42.690;23.260;2023-07-20T02:50:56;93967.44;;;18.91;100.00
6433;BME280;3249;42.690;23.260;2023-07-20T02:53:24;93972.28;;;18.74;100.00
6433;BME280;3249;42.690;23.260;2023-07-20T02:55:56;93973.56;;;18.76;100.00
6433;BME280;3249;42.690;23.260;2023-07-20T02:58:25;93971.72;;;18.77;100.00
6433;BME280;3249;42.690;23.260;2023-07-20T03:00:55;93975.75;;;18.93;100.00
6433;BME280;3249;42.690;23.260;2023-07-20T03:03:24;93976.53;;;18.93;100.00
6433;BME280;3249;42.690;23.260;2023-07-20T03:05:52;93974.38;;;18.72;100.00
6433;BME280;3249;42.690;23.260;2023-07-20T03:08:23;93974.91;;;18.69;100.00
6433;BME280;3249;42.690;23.260;2023-07-20T03:10:52;93978.13;;;18.89;100.00
6433;BME280;3249;42.690;23.260;2023-07-20T03:13:24;93971.59;;;18.92;100.00
6433;BME280;3249;42.690;23.260;2023-07-20T03:15:53;93976.22;;;19.00;100.00
6433;BME280;3249;42.690;23.260;2023-07-20T03:18:22;93973.56;;;19.05;100.00
6433;BME280;3249;42.690;23.260;2023-07-20T03:20:52;93985.91;;;18.66;100.00
6433;BME280;3249;42.690;23.260;2023-07-20T03:23:21;93987.03;;;18.88;100.00
6433;BME280;3249;42.690;23.260;2023-07-20T03:25:50;93981.69;;;18.70;100.00
6433;BME280;3249;42.690;23.260;2023-07-20T03:28:21;93998.59;;;18.77;100.00
6433;BME280;3249;42.690;23.260;2023-07-20T03:30:55;93990.78;;;19.06;100.00
6433;BME280;3249;42.690;23.260;2023-07-20T03:33:28;93984.97;;;19.14;100.00
6433;BME280;3249;42.690;23.260;2023-07-20T03:35:58;93979.22;;;19.12;100.00
6433;BME280;3249;42.690;23.260;2023-07-20T03:38:27;93978.16;;;19.18;100.00
6433;BME280;3249;42.690;23.260;2023-07-20T03:40:59;94003.97;;;19.48;100.00
6433;BME280;3249;42.690;23.260;2023-07-20T03:43:29;93995.56;;;19.22;100.00
6433;BME280;3249;42.690;23.260;2023-07-20T03:46:01;93994.34;;;19.15;100.00
6433;BME280;3249;42.690;23.260;2023-07-20T03:48:33;93992.47;;;19.49;100.00
6433;BME280;3249;42.690;23.260;2023-07-20T03:51:03;94004.03;;;19.66;100.00
6433;BME280;3249;42.690;23.260;2023-07-20T03:53:32;94004.19;;;19.75;100.00
6433;BME280;3249;42.690;23.260;2023-07-20T03:56:02;94001.28;;;20.00;100.00
6433;BME280;3249;42.690;23.260;2023-07-20T03:58:31;94013.28;;;20.24;100.00
6433;BME280;3249;42.690;23.260;2023-07-20T04:01:02;94007.84;;;20.39;100.00
6433;BME280;3249;42.690;23.260;2023-07-20T04:03:33;94010.31;;;20.49;100.00
6433;BME280;3249;42.690;23.260;2023-07-20T04:06:02;93996.25;;;20.64;100.00
6433;BME280;3249;42.690;23.260;2023-07-20T04:08:31;94001.25;;;20.97;100.00
6433;BME280;3249;42.690;23.260;2023-07-20T04:11:04;94004.00;;;21.06;100.00
6433;BME280;3249;42.690;23.260;2023-07-20T04:13:32;93996.03;;;20.79;100.00
6433;BME280;3249;42.690;23.260;2023-07-20T04:16:04;93986.41;;;21.25;100.00
6433;BME280;3249;42.690;23.260;2023-07-20T04:18:33;93993.09;;;21.31;100.00
6433;BME280;3249;42.690;23.260;2023-07-20T04:21:03;93991.66;;;21.65;100.00
6433;BME280;3249;42.690;23.260;2023-07-20T04:23:32;93992.47;;;21.79;100.00
6433;BME280;3249;42.690;23.260;2023-07-20T04:26:01;93993.13;;;21.58;100.00
6433;BME280;3249;42.690;23.260;2023-07-20T04:28:32;93985.59;;;21.24;100.00
6433;BME280;3249;42.690;23.260;2023-07-20T04:31:14;93985.09;;;21.68;100.00
6433;BME280;3249;42.690;23.260;2023-07-20T04:33:44;93984.31;;;21.67;100.00
6433;BME280;3249;42.690;23.260;2023-07-20T04:36:13;93989.69;;;21.76;100.00
6433;BME280;3249;42.690;23.260;2023-07-20T04:38:45;93985.00;;;22.00;100.00
6433;BME280;3249;42.690;23.260;2023-07-20T04:41:19;93980.06;;;21.98;100.00
6433;BME280;3249;42.690;23.260;2023-07-20T04:43:50;93982.97;;;21.83;100.00
6433;BME280;3249;42.690;23.260;2023-07-20T04:46:30;93972.97;;;21.72;100.00
6433;BME280;3249;42.690;23.260;2023-07-20T04:49:01;93979.47;;;22.02;100.00
6433;BME280;3249;42.690;23.260;2023-07-20T04:51:35;93978.47;;;22.11;100.00
6433;BME280;3249;42.690;23.260;2023-07-20T04:54:04;93988.38;;;22.14;100.00
6433;BME280;3249;42.690;23.260;2023-07-20T04:56:36;93983.78;;;22.20;100.00
6433;BME280;3249;42.690;23.260;2023-07-20T04:59:08;93987.06;;;22.52;100.00
6433;BME280;3249;42.690;23.260;2023-07-20T05:01:40;93995.50;;;22.49;100.00
6433;BME280;3249;42.690;23.260;2023-07-20T05:04:09;93988.63;;;22.75;100.00
6433;BME280;3249;42.690;23.260;2023-07-20T05:06:38;93984.69;;;22.64;100.00
6433;BME280;3249;42.690;23.260;2023-07-20T05:09:08;93985.53;;;22.73;100.00
6433;BME280;3249;42.690;23.260;2023-07-20T05:11:37;93982.44;;;22.71;100.00
6433;BME280;3249;42.690;23.260;2023-07-20T05:14:06;93995.19;;;22.86;100.00
6433;BME280;3249;42.690;23.260;2023-07-20T05:16:39;93993.31;;;22.65;100.00
6433;BME280;3249;42.690;23.260;2023-07-20T05:19:09;93985.34;;;22.07;100.00
6433;BME280;3249;42.690;23.260;2023-07-20T05:21:38;93989.84;;;21.93;100.00
6433;BME280;3249;42.690;23.260;2023-07-20T05:24:08;93988.59;;;22.04;100.00
6433;BME280;3249;42.690;23.260;2023-07-20T05:26:39;93995.53;;;22.22;100.00
6433;BME280;3249;42.690;23.260;2023-07-20T05:29:08;94003.28;;;22.54;100.00
6433;BME280;3249;42.690;23.260;2023-07-20T05:31:39;94009.88;;;22.38;100.00
6433;BME280;3249;42.690;23.260;2023-07-20T05:34:08;94006.00;;;22.36;100.00
6433;BME280;3249;42.690;23.260;2023-07-20T05:37:08;94009.88;;;22.38;100.00
6433;BME280;3249;42.690;23.260;2023-07-20T05:39:37;94020.88;;;22.40;100.00
6433;BME280;3249;42.690;23.260;2023-07-20T05:42:06;94017.66;;;22.43;100.00
6433;BME280;3249;42.690;23.260;2023-07-20T05:44:35;94018.66;;;22.47;100.00
6433;BME280;3249;42.690;23.260;2023-07-20T05:47:07;94024.72;;;22.92;100.00
6433;BME280;3249;42.690;23.260;2023-07-20T05:49:36;94024.13;;;22.95;100.00
6433;BME280;3249;42.690;23.260;2023-07-20T05:52:06;94033.53;;;23.31;100.00
6433;BME280;3249;42.690;23.260;2023-07-20T05:54:35;94023.06;;;23.18;100.00
6433;BME280;3249;42.690;23.260;2023-07-20T05:57:04;94019.75;;;23.56;100.00
6433;BME280;3249;42.690;23.260;2023-07-20T05:59:33;94011.56;;;23.58;100.00
6433;BME280;3249;42.690;23.260;2023-07-20T06:02:07;94013.69;;;23.47;100.00
6433;BME280;3249;42.690;23.260;2023-07-20T06:04:36;94024.97;;;23.78;100.00
6433;BME280;3249;42.690;23.260;2023-07-20T06:07:06;94025.84;;;24.04;100.00
6433;BME280;3249;42.690;23.260;2023-07-20T06:09:35;94025.69;;;24.09;100.00
6433;BME280;3249;42.690;23.260;2023-07-20T06:12:06;94029.31;;;24.39;100.00
6433;BME280;3249;42.690;23.260;2023-07-20T06:14:35;94034.50;;;24.61;100.00
6433;BME280;3249;42.690;23.260;2023-07-20T06:17:07;94030.03;;;24.70;100.00
6433;BME280;3249;42.690;23.260;2023-07-20T06:19:36;94016.88;;;24.78;99.90
6433;BME280;3249;42.690;23.260;2023-07-20T06:22:05;94003.53;;;24.92;97.62
6433;BME280;3249;42.690;23.260;2023-07-20T06:24:34;94015.94;;;25.00;95.08
6433;BME280;3249;42.690;23.260;2023-07-20T06:27:04;94020.41;;;24.99;93.50
6433;BME280;3249;42.690;23.260;2023-07-20T06:29:34;94008.81;;;24.92;95.31
6433;BME280;3249;42.690;23.260;2023-07-20T06:32:04;94007.09;;;24.96;92.97
6433;BME280;3249;42.690;23.260;2023-07-20T06:34:36;93987.56;;;24.88;93.99
6433;BME280;3249;42.690;23.260;2023-07-20T06:37:05;94008.03;;;24.91;92.56
6433;BME280;3249;42.690;23.260;2023-07-20T06:39:34;94003.66;;;25.12;90.92
6433;BME280;3249;42.690;23.260;2023-07-20T06:42:04;94002.78;;;24.74;94.32
6433;BME280;3249;42.690;23.260;2023-07-20T06:44:33;94006.91;;;24.50;93.98
6433;BME280;3249;42.690;23.260;2023-07-20T06:47:02;93998.81;;;24.29;98.05
6433;BME280;3249;42.690;23.260;2023-07-20T06:49:34;93998.38;;;24.44;93.85
6433;BME280;3249;42.690;23.260;2023-07-20T06:52:04;94005.25;;;24.79;92.13
6433;BME280;3249;42.690;23.260;2023-07-20T06:54:33;94008.78;;;24.75;90.54
6433;BME280;3249;42.690;23.260;2023-07-20T06:57:03;94020.25;;;25.13;90.98
6433;BME280;3249;42.690;23.260;2023-07-20T06:59:32;94032.56;;;25.72;83.77
6433;BME280;3249;42.690;23.260;2023-07-20T07:02:02;94040.28;;;26.23;82.02
6433;BME280;3249;42.690;23.260;2023-07-20T07:04:31;94044.66;;;26.48;78.88
6433;BME280;3249;42.690;23.260;2023-07-20T07:07:03;94050.50;;;26.25;81.40
6433;BME280;3249;42.690;23.260;2023-07-20T07:09:32;94041.19;;;25.89;87.41
6433;BME280;3249;42.690;23.260;2023-07-20T07:12:01;94047.03;;;25.57;89.71
6433;BME280;3249;42.690;23.260;2023-07-20T07:14:30;94063.31;;;25.08;90.47
6433;BME280;3249;42.690;23.260;2023-07-20T07:16:59;94068.56;;;25.51;87.44
6433;BME280;3249;42.690;23.260;2023-07-20T07:19:28;94079.84;;;25.77;84.50
6433;BME280;3249;42.690;23.260;2023-07-20T07:21:57;94079.75;;;25.56;83.80
6433;BME280;3249;42.690;23.260;2023-07-20T07:24:28;94080.84;;;24.87;93.99
6433;BME280;3249;42.690;23.260;2023-07-20T07:26:59;94076.19;;;25.10;94.57
6433;BME280;3249;42.690;23.260;2023-07-20T07:29:29;94075.09;;;24.85;97.80
6433;BME280;3249;42.690;23.260;2023-07-20T07:31:58;94071.38;;;24.61;100.00
6433;BME280;3249;42.690;23.260;2023-07-20T07:34:27;94060.38;;;24.67;100.00
6433;BME280;3249;42.690;23.260;2023-07-20T07:37:00;94050.63;;;24.93;96.15
6433;BME280;3249;42.690;23.260;2023-07-20T07:39:32;94063.03;;;25.10;96.76
6433;BME280;3249;42.690;23.260;2023-07-20T07:42:01;94061.50;;;25.34;95.16
6433;BME280;3249;42.690;23.260;2023-07-20T07:44:31;94070.31;;;24.87;98.47
6433;BME280;3249;42.690;23.260;2023-07-20T07:46:59;94053.28;;;25.10;96.43
6433;BME280;3249;42.690;23.260;2023-07-20T07:49:29;94037.59;;;24.88;95.64
6433;BME280;3249;42.690;23.260;2023-07-20T07:51:58;94028.19;;;24.96;97.81
6433;BME280;3249;42.690;23.260;2023-07-20T07:54:28;94031.84;;;25.20;98.08
6433;BME280;3249;42.690;23.260;2023-07-20T07:57:00;94047.16;;;25.61;96.25
6433;BME280;3249;42.690;23.260;2023-07-20T07:59:30;94017.13;;;25.11;97.79
6433;BME280;3249;42.690;23.260;2023-07-20T08:02:04;94041.63;;;25.28;100.00
6433;BME280;3249;42.690;23.260;2023-07-20T08:04:33;94055.13;;;25.35;100.00
6433;BME280;3249;42.690;23.260;2023-07-20T08:07:04;94052.75;;;25.51;98.67
6433;BME280;3249;42.690;23.260;2023-07-20T08:09:34;94081.03;;;25.33;100.00
6433;BME280;3249;42.690;23.260;2023-07-20T08:12:07;94076.66;;;25.54;100.00
6433;BME280;3249;42.690;23.260;2023-07-20T08:14:36;94081.31;;;25.49;100.00
6433;BME280;3249;42.690;23.260;2023-07-20T08:17:06;94083.19;;;25.40;96.68
6433;BME280;3249;42.690;23.260;2023-07-20T08:19:36;94094.03;;;24.96;95.06
6433;BME280;3249;42.690;23.260;2023-07-20T08:22:07;94103.31;;;25.27;88.33
6433;BME280;3249;42.690;23.260;2023-07-20T08:24:39;94091.88;;;25.32;86.44
6433;BME280;3249;42.690;23.260;2023-07-20T08:27:12;94052.50;;;25.01;84.47
6433;BME280;3249;42.690;23.260;2023-07-20T08:29:41;94087.50;;;25.44;82.84
6433;BME280;3249;42.690;23.260;2023-07-20T08:32:11;94087.22;;;25.37;80.18
6433;BME280;3249;42.690;23.260;2023-07-20T08:34:42;94091.53;;;25.25;83.25
6433;BME280;3249;42.690;23.260;2023-07-20T08:37:12;94095.28;;;25.24;81.40
6433;BME280;3249;42.690;23.260;2023-07-20T08:39:41;94088.91;;;25.42;80.69
6433;BME280;3249;42.690;23.260;2023-07-20T08:42:14;94080.69;;;24.84;85.96
6433;BME280;3249;42.690;23.260;2023-07-20T08:44:44;94097.56;;;24.91;86.56
6433;BME280;3249;42.690;23.260;2023-07-20T08:47:16;94099.47;;;25.33;80.53
6433;BME280;3249;42.690;23.260;2023-07-20T08:49:47;94090.00;;;25.41;76.39
6433;BME280;3249;42.690;23.260;2023-07-20T08:52:17;94101.31;;;25.50;73.69
6433;BME280;3249;42.690;23.260;2023-07-20T08:54:46;94097.28;;;25.52;74.85
6433;BME280;3249;42.690;23.260;2023-07-20T08:57:18;94078.50;;;25.54;75.37
6433;BME280;3249;42.690;23.260;2023-07-20T08:59:50;94086.56;;;25.23;80.70
6433;BME280;3249;42.690;23.260;2023-07-20T09:02:22;94070.63;;;25.45;76.03
6433;BME280;3249;42.690;23.260;2023-07-20T09:04:54;94067.34;;;25.57;75.12
6433;BME280;3249;42.690;23.260;2023-07-20T09:07:23;94072.47;;;25.45;76.03
6433;BME280;3249;42.690;23.260;2023-07-20T09:09:57;94083.47;;;25.55;78.22
6433;BME280;3249;42.690;23.260;2023-07-20T09:12:35;94076.88;;;25.87;76.64
6433;BME280;3249;42.690;23.260;2023-07-20T09:15:05;94072.97;;;25.93;75.22
6433;BME280;3249;42.690;23.260;2023-07-20T09:17:34;94069.75;;;26.25;73.60
6433;BME280;3249;42.690;23.260;2023-07-20T09:20:05;94064.84;;;26.44;67.59
6433;BME280;3249;42.690;23.260;2023-07-20T09:22:36;94059.25;;;26.46;67.29
6433;BME280;3249;42.690;23.260;2023-07-20T09:25:09;94068.84;;;26.59;63.57
6433;BME280;3249;42.690;23.260;2023-07-20T09:27:43;94069.44;;;26.27;62.09
6433;BME280;3249;42.690;23.260;2023-07-20T09:30:14;94070.25;;;26.48;66.20
6433;BME280;3249;42.690;23.260;2023-07-20T09:32:44;94067.97;;;26.75;63.55
6433;BME280;3249;42.690;23.260;2023-07-20T09:35:14;94066.31;;;26.62;63.37
6433;BME280;3249;42.690;23.260;2023-07-20T09:37:47;94060.59;;;27.01;65.07
6433;BME280;3249;42.690;23.260;2023-07-20T09:40:18;94058.88;;;27.26;65.93
6433;BME280;3249;42.690;23.260;2023-07-20T09:42:52;94053.06;;;27.32;61.58
6433;BME280;3249;42.690;23.260;2023-07-20T09:45:29;94065.31;;;27.81;58.65
6433;BME280;3249;42.690;23.260;2023-07-20T09:48:03;94072.59;;;28.05;56.41
6433;BME280;3249;42.690;23.260;2023-07-20T09:50:33;94052.06;;;28.14;51.82
6433;BME280;3249;42.690;23.260;2023-07-20T09:53:02;94051.09;;;28.30;49.75
6433;BME280;3249;42.690;23.260;2023-07-20T09:55:36;94034.53;;;28.33;47.40
6433;BME280;3249;42.690;23.260;2023-07-20T09:58:08;94035.06;;;28.27;46.37
6433;BME280;3249;42.690;23.260;2023-07-20T10:00:45;94033.75;;;28.09;47.57
6433;BME280;3249;42.690;23.260;2023-07-20T10:03:19;94035.06;;;28.03;48.12
6433;BME280;3249;42.690;23.260;2023-07-20T10:05:52;94045.34;;;28.16;48.18
6433;BME280;3249;42.690;23.260;2023-07-20T10:08:24;94052.06;;;28.14;45.46
6433;BME280;3249;42.690;23.260;2023-07-20T10:10:55;94052.28;;;28.21;45.05
6433;BME280;3249;42.690;23.260;2023-07-20T10:13:30;94043.00;;;28.15;46.56
6433;BME280;3249;42.690;23.260;2023-07-20T10:16:02;94057.13;;;28.19;44.87
6433;BME280;3249;42.690;23.260;2023-07-20T10:18:37;94053.84;;;28.22;44.45
6433;BME280;3249;42.690;23.260;2023-07-20T10:21:09;94069.72;;;28.34;44.04
6433;BME280;3249;42.690;23.260;2023-07-20T10:23:39;94066.84;;;28.39;45.01
6433;BME280;3249;42.690;23.260;2023-07-20T10:26:08;94056.28;;;28.51;45.79
6433;BME280;3249;42.690;23.260;2023-07-20T10:28:41;94045.00;;;28.54;45.77
6433;BME280;3249;42.690;23.260;2023-07-20T10:31:12;94048.66;;;28.61;43.00
6433;BME280;3249;42.690;23.260;2023-07-20T10:33:42;94047.09;;;28.60;44.25
6433;BME280;3249;42.690;23.260;2023-07-20T10:36:11;94054.41;;;28.63;44.92
6433;BME280;3249;42.690;23.260;2023-07-20T10:38:41;94049.41;;;28.74;44.04
6433;BME280;3249;42.690;23.260;2023-07-20T10:41:18;94023.81;;;28.54;43.84
6433;BME280;3249;42.690;23.260;2023-07-20T10:43:50;93968.22;;;28.30;46.36
6433;BME280;3249;42.690;23.260;2023-07-20T10:46:42;93949.00;;;28.45;44.95
6433;BME280;3249;42.690;23.260;2023-07-20T10:49:13;94009.53;;;28.82;45.38
6433;BME280;3249;42.690;23.260;2023-07-20T10:51:43;94010.28;;;28.83;46.22
6433;BME280;3249;42.690;23.260;2023-07-20T10:54:34;94008.13;;;29.12;43.48
6433;BME280;3249;42.690;23.260;2023-07-20T10:57:22;93989.41;;;29.48;46.21
6433;BME280;3249;42.690;23.260;2023-07-20T11:00:07;93977.22;;;28.92;47.86
6433;BME280;3249;42.690;23.260;2023-07-20T11:02:45;93983.22;;;28.89;48.27
6433;BME280;3249;42.690;23.260;2023-07-20T11:05:32;93976.81;;;28.51;47.48
6433;BME280;3249;42.690;23.260;2023-07-20T11:08:04;93941.66;;;28.66;50.53
6433;BME280;3249;42.690;23.260;2023-07-20T11:10:34;93973.28;;;28.86;53.08
6433;BME280;3249;42.690;23.260;2023-07-20T11:13:18;93974.09;;;28.75;54.61
6433;BME280;3249;42.690;23.260;2023-07-20T11:16:02;93968.16;;;28.66;49.28
6433;BME280;3249;42.690;23.260;2023-07-20T11:18:35;93967.63;;;29.00;51.30
6433;BME280;3249;42.690;23.260;2023-07-20T11:21:10;93963.69;;;29.37;48.40
6433;BME280;3249;42.690;23.260;2023-07-20T11:23:43;93958.13;;;28.99;50.28
6433;BME280;3249;42.690;23.260;2023-07-20T11:26:15;93967.88;;;29.38;50.00
6433;BME280;3249;42.690;23.260;2023-07-20T11:28:48;93935.50;;;29.17;51.67
6433;BME280;3249;42.690;23.260;2023-07-20T11:31:25;93956.38;;;29.03;52.77
6433;BME280;3249;42.690;23.260;2023-07-20T11:33:54;93947.59;;;29.30;48.22
6433;BME280;3249;42.690;23.260;2023-07-20T11:36:23;93957.72;;;29.55;47.46
6433;BME280;3249;42.690;23.260;2023-07-20T11:38:53;93951.47;;;29.48;47.52
6433;BME280;3249;42.690;23.260;2023-07-20T11:41:22;93942.47;;;29.21;51.11
6433;BME280;3249;42.690;23.260;2023-07-20T11:43:52;93923.38;;;29.16;51.47
6433;BME280;3249;42.690;23.260;2023-07-20T11:46:24;93935.31;;;29.10;51.91
6433;BME280;3249;42.690;23.260;2023-07-20T11:48:57;93931.88;;;29.52;50.03
6433;BME280;3249;42.690;23.260;2023-07-20T11:51:28;93927.56;;;29.17;52.59
6433;BME280;3249;42.690;23.260;2023-07-20T11:53:58;93924.09;;;29.44;52.94
6433;BME280;3249;42.690;23.260;2023-07-20T11:56:27;93897.19;;;29.30;50.42
6433;BME280;3249;42.690;23.260;2023-07-20T11:58:57;93903.09;;;29.08;50.13
6433;BME280;3249;42.690;23.260;2023-07-20T12:01:35;93917.13;;;29.39;48.36
6433;BME280;3249;42.690;23.260;2023-07-20T12:04:07;93919.88;;;29.27;49.43
6433;BME280;3249;42.690;23.260;2023-07-20T12:06:36;93904.75;;;29.00;46.79
6433;BME280;3249;42.690;23.260;2023-07-20T12:09:06;93909.44;;;29.19;47.89
6433;BME280;3249;42.690;23.260;2023-07-20T12:11:44;93903.19;;;29.27;50.40
6433;BME280;3249;42.690;23.260;2023-07-20T12:14:14;93899.75;;;29.42;48.04
6433;BME280;3249;42.690;23.260;2023-07-20T12:16:52;93904.69;;;29.71;42.74
6433;BME280;3249;42.690;23.260;2023-07-20T12:19:25;93914.88;;;29.85;40.38
6433;BME280;3249;42.690;23.260;2023-07-20T12:21:57;93898.97;;;30.04;40.42
6433;BME280;3249;42.690;23.260;2023-07-20T12:24:28;93904.78;;;30.25;39.91
6433;BME280;3249;42.690;23.260;2023-07-20T12:26:58;93903.59;;;30.07;36.34
6433;BME280;3249;42.690;23.260;2023-07-20T12:29:27;93903.16;;;30.20;36.62
6433;BME280;3249;42.690;23.260;2023-07-20T12:32:00;93910.22;;;30.32;33.30
6433;BME280;3249;42.690;23.260;2023-07-20T12:34:29;93908.91;;;30.41;31.38
6433;BME280;3249;42.690;23.260;2023-07-20T12:36:59;93915.63;;;30.35;30.26
6433;BME280;3249;42.690;23.260;2023-07-20T12:39:33;93890.53;;;30.33;30.99
6433;BME280;3249;42.690;23.260;2023-07-20T12:42:04;93901.16;;;30.52;31.06
6433;BME280;3249;42.690;23.260;2023-07-20T12:44:33;93904.75;;;30.59;32.08
6433;BME280;3249;42.690;23.260;2023-07-20T12:47:05;93899.72;;;30.73;32.39
6433;BME280;3249;42.690;23.260;2023-07-20T12:49:35;93896.81;;;30.78;32.97
6433;BME280;3249;42.690;23.260;2023-07-20T12:52:04;93894.22;;;30.28;34.61
6433;BME280;3249;42.690;23.260;2023-07-20T12:54:34;93888.25;;;30.16;35.12
6433;BME280;3249;42.690;23.260;2023-07-20T12:57:03;93877.72;;;30.04;35.89
6433;BME280;3249;42.690;23.260;2023-07-20T12:59:32;93882.28;;;30.03;37.18
6433;BME280;3249;42.690;23.260;2023-07-20T13:02:04;93873.97;;;30.05;37.89
6433;BME280;3249;42.690;23.260;2023-07-20T13:04:34;93871.84;;;29.95;37.94
6433;BME280;3249;42.690;23.260;2023-07-20T13:07:03;93877.31;;;30.02;37.48
6433;BME280;3249;42.690;23.260;2023-07-20T13:09:32;93871.50;;;29.96;39.05
6433;BME280;3249;42.690;23.260;2023-07-20T13:12:01;93869.97;;;30.30;37.38
6433;BME280;3249;42.690;23.260;2023-07-20T13:14:30;93871.16;;;30.51;38.50
6433;BME280;3249;42.690;23.260;2023-07-20T13:16:59;93867.81;;;30.54;38.50
6433;BME280;3249;42.690;23.260;2023-07-20T13:19:33;93881.00;;;30.32;39.13
6433;BME280;3249;42.690;23.260;2023-07-20T13:22:01;93870.78;;;30.15;37.12
6433;BME280;3249;42.690;23.260;2023-07-20T13:24:30;93871.22;;;30.17;38.83
6433;BME280;3249;42.690;23.260;2023-07-20T13:26:59;93869.81;;;30.23;38.14